sensor_id;sensor_type;location;lat;lon;timestamp;pressure;altitude;pressure_sealevel;temperature;humidity
74913;BME280;63878;55.624;37.304;2022-11-20T00:07:14;98943.41;;;-1.68;78.11
74913;BME280;63878;55.624;37.304;2022-11-20T00:17:15;98934.53;;;-1.52;78.01
74913;BME280;63878;55.624;37.304;2022-11-20T00:27:15;98940.50;;;-1.51;77.59
74913;BME280;63878;55.624;37.304;2022-11-20T00:37:16;98907.25;;;-1.57;77.56
74913;BME280;63878;55.624;37.304;2022-11-20T00:47:16;98939.47;;;-1.44;77.55
74913;BME280;63878;55.624;37.304;2022-11-20T00:57:17;98940.41;;;-1.47;78.10
74913;BME280;63878;55.624;37.304;2022-11-20T01:07:17;98938.63;;;-1.45;77.95
74913;BME280;63878;55.624;37.304;2022-11-20T01:17:18;98946.81;;;-1.66;77.92
74913;BME280;63878;55.624;37.304;2022-11-20T01:27:18;98932.97;;;-1.59;78.31
74913;BME280;63878;55.624;37.304;2022-11-20T01:37:19;98941.25;;;-1.46;77.27
74913;BME280;63878;55.624;37.304;2022-11-20T01:57:29;98971.03;;;-1.39;76.43
74913;BME280;63878;55.624;37.304;2022-11-20T02:07:32;98977.97;;;-1.43;76.31
74913;BME280;63878;55.624;37.304;2022-11-20T02:17:33;98993.59;;;-1.15;74.52
74913;BME280;63878;55.624;37.304;2022-11-20T02:27:33;98997.56;;;-1.39;76.08
74913;BME280;63878;55.624;37.304;2022-11-20T02:37:37;99008.63;;;-1.37;75.18
74913;BME280;63878;55.624;37.304;2022-11-20T02:47:38;99000.66;;;-1.63;74.87
74913;BME280;63878;55.624;37.304;2022-11-20T02:57:39;99004.09;;;-1.64;75.01
74913;BME280;63878;55.624;37.304;2022-11-20T03:07:40;99003.34;;;-1.69;74.79
74913;BME280;63878;55.624;37.304;2022-11-20T03:17:40;99014.66;;;-1.38;73.51
74913;BME280;63878;55.624;37.304;2022-11-20T03:27:41;99024.75;;;-1.30;72.56
74913;BME280;63878;55.624;37.304;2022-11-20T03:37:41;99020.69;;;-1.39;72.88
74913;BME280;63878;55.624;37.304;2022-11-20T03:47:41;99034.56;;;-1.07;73.01
74913;BME280;63878;55.624;37.304;2022-11-20T03:57:42;99038.78;;;-1.45;72.40
74913;BME280;63878;55.624;37.304;2022-11-20T04:07:42;99061.22;;;-1.54;73.08
74913;BME280;63878;55.624;37.304;2022-11-20T04:17:43;99070.34;;;-1.40;71.97
74913;BME280;63878;55.624;37.304;2022-11-20T04:27:43;99078.41;;;-1.58;72.95
74913;BME280;63878;55.624;37.304;2022-11-20T04:37:44;99083.53;;;-1.56;72.60
74913;BME280;63878;55.624;37.304;2022-11-20T04:47:44;99098.28;;;-1.68;72.86
74913;BME280;63878;55.624;37.304;2022-11-20T04:57:45;99115.41;;;-1.68;74.36
74913;BME280;63878;55.624;37.304;2022-11-20T05:07:45;99124.75;;;-1.64;73.82
74913;BME280;63878;55.624;37.304;2022-11-20T05:17:52;99133.19;;;-1.57;73.07
74913;BME280;63878;55.624;37.304;2022-11-20T05:27:53;99136.69;;;-1.63;74.04
74913;BME280;63878;55.624;37.304;2022-11-20T05:37:53;99165.94;;;-1.70;73.58
74913;BME280;63878;55.624;37.304;2022-11-20T05:47:57;99162.03;;;-1.45;73.03
74913;BME280;63878;55.624;37.304;2022-11-20T05:57:57;99176.81;;;-1.57;73.12
74913;BME280;63878;55.624;37.304;2022-11-20T06:08:00;99210.81;;;-1.43;72.03
74913;BME280;63878;55.624;37.304;2022-11-20T06:18:01;99216.22;;;-1.58;72.98
74913;BME280;63878;55.624;37.304;2022-11-20T06:28:01;99219.16;;;-1.80;73.81
74913;BME280;63878;55.624;37.304;2022-11-20T06:38:02;99219.34;;;-1.43;72.30
74913;BME280;63878;55.624;37.304;2022-11-20T06:48:03;99199.09;;;-1.58;73.04
74913;BME280;63878;55.624;37.304;2022-11-20T06:58:04;99206.56;;;-1.47;72.52
74913;BME280;63878;55.624;37.304;2022-11-20T07:08:05;99209.59;;;-1.72;73.20
74913;BME280;63878;55.624;37.304;2022-11-20T07:18:05;99235.28;;;-1.72;73.77
74913;BME280;63878;55.624;37.304;2022-11-20T07:28:05;99227.50;;;-1.69;73.70
74913;BME280;63878;55.624;37.304;2022-11-20T07:38:13;99238.63;;;-1.67;73.23
74913;BME280;63878;55.624;37.304;2022-11-20T07:48:22;99239.66;;;-1.78;74.39
74913;BME280;63878;55.624;37.304;2022-11-20T07:58:26;99226.66;;;-1.69;73.78
74913;BME280;63878;55.624;37.304;2022-11-20T08:08:28;99265.78;;;-1.53;73.73
74913;BME280;63878;55.624;37.304;2022-11-20T08:18:38;99273.47;;;-1.53;74.24
74913;BME280;63878;55.624;37.304;2022-11-20T08:28:39;99260.63;;;-1.53;74.20
74913;BME280;63878;55.624;37.304;2022-11-20T08:38:40;99289.78;;;-1.57;74.96
74913;BME280;63878;55.624;37.304;2022-11-20T08:48:41;99290.13;;;-1.79;76.46
74913;BME280;63878;55.624;37.304;2022-11-20T08:58:42;99329.78;;;-1.43;75.94
74913;BME280;63878;55.624;37.304;2022-11-20T09:08:43;99344.16;;;-1.31;75.59
74913;BME280;63878;55.624;37.304;2022-11-20T09:18:43;99363.22;;;-1.46;76.66
74913;BME280;63878;55.624;37.304;2022-11-20T09:28:44;99377.59;;;-1.35;76.57
74913;BME280;63878;55.624;37.304;2022-11-20T09:38:46;99387.50;;;-1.11;75.84
74913;BME280;63878;55.624;37.304;2022-11-20T10:09:40;99389.88;;;-0.99;75.29
74913;BME280;63878;55.624;37.304;2022-11-20T10:30:18;99402.72;;;-1.00;72.60
74913;BME280;63878;55.624;37.304;2022-11-20T10:41:37;99416.50;;;-1.04;69.76
74913;BME280;63878;55.624;37.304;2022-11-20T10:51:10;99435.38;;;-1.05;70.76
74913;BME280;63878;55.624;37.304;2022-11-20T11:01:21;99404.69;;;-1.16;70.13
74913;BME280;63878;55.624;37.304;2022-11-20T11:11:26;99442.06;;;-0.97;70.07
74913;BME280;63878;55.624;37.304;2022-11-20T11:21:30;99442.63;;;-0.78;67.64
74913;BME280;63878;55.624;37.304;2022-11-20T11:31:34;99450.84;;;-1.10;69.30
74913;BME280;63878;55.624;37.304;2022-11-20T11:41:36;99446.75;;;-1.20;68.82
74913;BME280;63878;55.624;37.304;2022-11-20T13:07:20;99500.75;;;-1.25;68.23
74913;BME280;63878;55.624;37.304;2022-11-20T13:17:59;99503.34;;;-1.28;68.37
74913;BME280;63878;55.624;37.304;2022-11-20T13:38:15;99472.31;;;-1.73;68.86
74913;BME280;63878;55.624;37.304;2022-11-20T13:48:24;99519.75;;;-1.37;68.93
74913;BME280;63878;55.624;37.304;2022-11-20T13:58:51;99521.56;;;-1.45;68.43
74913;BME280;63878;55.624;37.304;2022-11-20T14:08:57;99498.47;;;-1.45;67.09
74913;BME280;63878;55.624;37.304;2022-11-20T14:29:35;99545.47;;;-1.40;66.89
74913;BME280;63878;55.624;37.304;2022-11-20T14:39:40;99572.28;;;-1.60;68.52
74913;BME280;63878;55.624;37.304;2022-11-20T14:49:41;99566.25;;;-1.58;67.96
74913;BME280;63878;55.624;37.304;2022-11-20T14:59:42;99546.53;;;-1.56;68.10
74913;BME280;63878;55.624;37.304;2022-11-20T15:09:44;99558.56;;;-1.61;68.16
74913;BME280;63878;55.624;37.304;2022-11-20T15:19:46;99544.78;;;-1.54;67.41
74913;BME280;63878;55.624;37.304;2022-11-20T15:29:47;99544.84;;;-1.58;68.52
74913;BME280;63878;55.624;37.304;2022-11-20T15:39:48;99554.38;;;-1.67;69.01
74913;BME280;63878;55.624;37.304;2022-11-20T15:49:49;99541.81;;;-1.91;68.81
74913;BME280;63878;55.624;37.304;2022-11-20T15:59:49;99570.34;;;-1.43;67.95
74913;BME280;63878;55.624;37.304;2022-11-20T16:09:50;99540.09;;;-1.20;66.45
74913;BME280;63878;55.624;37.304;2022-11-20T16:19:51;99517.75;;;-1.16;66.44
74913;BME280;63878;55.624;37.304;2022-11-20T16:29:52;99537.66;;;-1.30;66.60
74913;BME280;63878;55.624;37.304;2022-11-20T16:39:52;99542.84;;;-1.37;66.88
74913;BME280;63878;55.624;37.304;2022-11-20T16:49:55;99541.19;;;-1.39;66.91
74913;BME280;63878;55.624;37.304;2022-11-20T16:59:56;99550.94;;;-1.69;68.34
74913;BME280;63878;55.624;37.304;2022-11-20T17:09:57;99517.47;;;-0.96;65.09
74913;BME280;63878;55.624;37.304;2022-11-20T17:20:03;99541.31;;;-0.88;65.64
74913;BME280;63878;55.624;37.304;2022-11-20T17:30:17;99535.06;;;-0.70;65.66
74913;BME280;63878;55.624;37.304;2022-11-20T17:40:21;99541.06;;;0.26;61.90
74913;BME280;63878;55.624;37.304;2022-11-20T17:50:22;99540.91;;;-0.11;62.92
74913;BME280;63878;55.624;37.304;2022-11-20T18:00:23;99545.81;;;-1.02;64.95
74913;BME280;63878;55.624;37.304;2022-11-20T18:10:23;99539.25;;;-1.23;66.12
74913;BME280;63878;55.624;37.304;2022-11-20T18:20:24;99548.81;;;-1.33;66.26
74913;BME280;63878;55.624;37.304;2022-11-20T18:30:25;99554.81;;;-1.34;66.64
74913;BME280;63878;55.624;37.304;2022-11-20T18:40:28;99554.41;;;-1.70;67.72
74913;BME280;63878;55.624;37.304;2022-11-20T18:50:29;99559.44;;;-0.96;65.48
74913;BME280;63878;55.624;37.304;2022-11-20T19:00:29;99546.47;;;-0.88;65.08
74913;BME280;63878;55.624;37.304;2022-11-20T19:10:30;99518.66;;;-1.19;66.96
74913;BME280;63878;55.624;37.304;2022-11-20T19:20:31;99512.94;;;-0.82;66.26
74913;BME280;63878;55.624;37.304;2022-11-20T19:30:32;99500.47;;;-1.05;66.08
74913;BME280;63878;55.624;37.304;2022-11-20T19:40:33;99512.09;;;-1.40;68.58
74913;BME280;63878;55.624;37.304;2022-11-20T19:50:35;99528.31;;;-1.38;68.09
74913;BME280;63878;55.624;37.304;2022-11-20T20:00:38;99545.19;;;-0.61;65.55
74913;BME280;63878;55.624;37.304;2022-11-20T20:10:39;99561.00;;;-0.87;66.65
74913;BME280;63878;55.624;37.304;2022-11-20T20:20:40;99539.84;;;-1.04;67.77
74913;BME280;63878;55.624;37.304;2022-11-20T20:30:41;99539.06;;;-1.10;68.14
74913;BME280;63878;55.624;37.304;2022-11-20T20:40:47;99535.75;;;-1.18;68.12
74913;BME280;63878;55.624;37.304;2022-11-20T20:50:56;99554.47;;;-1.10;67.86
74913;BME280;63878;55.624;37.304;2022-11-20T21:01:11;99560.31;;;-0.97;67.96
74913;BME280;63878;55.624;37.304;2022-11-20T21:11:13;99543.25;;;-1.02;67.81
74913;BME280;63878;55.624;37.304;2022-11-20T21:21:15;99552.03;;;-1.17;68.87
74913;BME280;63878;55.624;37.304;2022-11-20T21:31:18;99545.31;;;-1.29;69.53
74913;BME280;63878;55.624;37.304;2022-11-20T21:41:19;99527.50;;;-1.40;69.74
74913;BME280;63878;55.624;37.304;2022-11-20T21:51:21;99539.47;;;-1.39;71.09
74913;BME280;63878;55.624;37.304;2022-11-20T22:01:31;99555.69;;;-1.33;71.12
74913;BME280;63878;55.624;37.304;2022-11-20T22:11:31;99541.22;;;-1.42;71.01
74913;BME280;63878;55.624;37.304;2022-11-20T22:21:33;99554.00;;;-1.38;70.52
74913;BME280;63878;55.624;37.304;2022-11-20T22:31:33;99536.06;;;-1.42;70.73
74913;BME280;63878;55.624;37.304;2022-11-20T22:41:34;99536.09;;;-1.44;71.04
74913;BME280;63878;55.624;37.304;2022-11-20T22:51:35;99530.88;;;-1.36;70.69
74913;BME280;63878;55.624;37.304;2022-11-20T23:01:37;99522.38;;;-1.41;71.23
74913;BME280;63878;55.624;37.304;2022-11-20T23:11:38;99499.28;;;-1.43;72.05
74913;BME280;63878;55.624;37.304;2022-11-20T23:21:39;99489.00;;;-1.43;71.53
74913;BME280;63878;55.624;37.304;2022-11-20T23:31:40;99501.06;;;-1.48;71.60
74913;BME280;63878;55.624;37.304;2022-11-20T23:41:41;99494.25;;;-1.50;72.07
74913;BME280;63878;55.624;37.304;2022-11-20T23:51:41;99479.69;;;-1.50;72.22
